sensor_id;sensor_type;location;lat;lon;timestamp;P1;durP1;ratioP1;P2;durP2;ratioP2
9563;SDS011;4820;50.870;4.702;2023-03-11T00:01:06;5.93;;;2.20;;
9563;SDS011;4820;50.870;4.702;2023-03-11T00:03:35;5.83;;;2.23;;
9563;SDS011;4820;50.870;4.702;2023-03-11T00:06:00;5.67;;;2.20;;
9563;SDS011;4820;50.870;4.702;2023-03-11T00:08:26;5.90;;;2.20;;
9563;SDS011;4820;50.870;4.702;2023-03-11T00:10:54;4.33;;;2.33;;
9563;SDS011;4820;50.870;4.702;2023-03-11T00:13:22;6.93;;;2.57;;
9563;SDS011;4820;50.870;4.702;2023-03-11T00:15:49;6.50;;;2.60;;
9563;SDS011;4820;50.870;4.702;2023-03-11T00:18:21;5.53;;;2.23;;
9563;SDS011;4820;50.870;4.702;2023-03-11T00:20:51;4.57;;;2.30;;
9563;SDS011;4820;50.870;4.702;2023-03-11T00:23:18;4.90;;;2.20;;
9563;SDS011;4820;50.870;4.702;2023-03-11T00:25:44;5.70;;;2.50;;
9563;SDS011;4820;50.870;4.702;2023-03-11T00:28:11;3.93;;;2.20;;
9563;SDS011;4820;50.870;4.702;2023-03-11T00:30:38;7.30;;;2.37;;
9563;SDS011;4820;50.870;4.702;2023-03-11T00:33:06;6.77;;;2.30;;
9563;SDS011;4820;50.870;4.702;2023-03-11T00:35:33;5.03;;;2.47;;
9563;SDS011;4820;50.870;4.702;2023-03-11T00:38:00;4.57;;;2.90;;
9563;SDS011;4820;50.870;4.702;2023-03-11T00:40:30;4.63;;;2.27;;
9563;SDS011;4820;50.870;4.702;2023-03-11T00:42:57;4.17;;;2.57;;
9563;SDS011;4820;50.870;4.702;2023-03-11T00:45:23;5.57;;;2.67;;
9563;SDS011;4820;50.870;4.702;2023-03-11T00:47:51;5.07;;;2.40;;
9563;SDS011;4820;50.870;4.702;2023-03-11T00:50:21;5.70;;;2.30;;
9563;SDS011;4820;50.870;4.702;2023-03-11T00:52:52;5.70;;;2.50;;
9563;SDS011;4820;50.870;4.702;2023-03-11T00:55:19;5.93;;;2.63;;
9563;SDS011;4820;50.870;4.702;2023-03-11T00:57:48;3.63;;;2.20;;
9563;SDS011;4820;50.870;4.702;2023-03-11T01:00:17;6.23;;;2.70;;
9563;SDS011;4820;50.870;4.702;2023-03-11T01:02:44;4.77;;;2.57;;
9563;SDS011;4820;50.870;4.702;2023-03-11T01:05:10;4.97;;;2.33;;
9563;SDS011;4820;50.870;4.702;2023-03-11T01:07:36;6.53;;;2.22;;
9563;SDS011;4820;50.870;4.702;2023-03-11T01:10:02;4.20;;;2.10;;
9563;SDS011;4820;50.870;4.702;2023-03-11T01:12:30;4.93;;;2.20;;
9563;SDS011;4820;50.870;4.702;2023-03-11T01:14:56;5.53;;;2.30;;
9563;SDS011;4820;50.870;4.702;2023-03-11T01:17:22;3.90;;;2.40;;
9563;SDS011;4820;50.870;4.702;2023-03-11T01:19:48;5.77;;;2.40;;
9563;SDS011;4820;50.870;4.702;2023-03-11T01:22:14;4.70;;;2.33;;
9563;SDS011;4820;50.870;4.702;2023-03-11T01:24:40;4.73;;;2.23;;
9563;SDS011;4820;50.870;4.702;2023-03-11T01:27:06;6.30;;;2.40;;
9563;SDS011;4820;50.870;4.702;2023-03-11T01:29:31;6.43;;;2.97;;
9563;SDS011;4820;50.870;4.702;2023-03-11T01:31:57;5.53;;;2.53;;
9563;SDS011;4820;50.870;4.702;2023-03-11T01:34:23;4.80;;;2.27;;
9563;SDS011;4820;50.870;4.702;2023-03-11T01:36:49;5.13;;;2.23;;
9563;SDS011;4820;50.870;4.702;2023-03-11T01:39:14;5.33;;;2.03;;
9563;SDS011;4820;50.870;4.702;2023-03-11T01:41:40;5.77;;;2.40;;
9563;SDS011;4820;50.870;4.702;2023-03-11T01:44:06;4.13;;;2.33;;
9563;SDS011;4820;50.870;4.702;2023-03-11T01:46:35;5.43;;;2.30;;
9563;SDS011;4820;50.870;4.702;2023-03-11T01:49:24;5.27;;;2.10;;
9563;SDS011;4820;50.870;4.702;2023-03-11T01:51:55;5.93;;;2.50;;
9563;SDS011;4820;50.870;4.702;2023-03-11T01:54:29;4.13;;;2.43;;
9563;SDS011;4820;50.870;4.702;2023-03-11T01:56:57;6.20;;;2.50;;
9563;SDS011;4820;50.870;4.702;2023-03-11T01:59:26;6.53;;;1.90;;
9563;SDS011;4820;50.870;4.702;2023-03-11T02:02:00;6.10;;;2.40;;
9563;SDS011;4820;50.870;4.702;2023-03-11T02:04:30;6.13;;;2.20;;
9563;SDS011;4820;50.870;4.702;2023-03-11T02:06:59;4.83;;;2.10;;
9563;SDS011;4820;50.870;4.702;2023-03-11T02:09:25;3.37;;;2.00;;
9563;SDS011;4820;50.870;4.702;2023-03-11T02:11:51;4.33;;;1.90;;
9563;SDS011;4820;50.870;4.702;2023-03-11T02:14:18;8.57;;;2.20;;
9563;SDS011;4820;50.870;4.702;2023-03-11T02:16:44;4.83;;;2.00;;
9563;SDS011;4820;50.870;4.702;2023-03-11T02:19:19;5.53;;;2.20;;
9563;SDS011;4820;50.870;4.702;2023-03-11T02:21:50;4.40;;;2.10;;
9563;SDS011;4820;50.870;4.702;2023-03-11T02:26:55;4.13;;;2.00;;
9563;SDS011;4820;50.870;4.702;2023-03-11T02:29:31;4.07;;;1.80;;
9563;SDS011;4820;50.870;4.702;2023-03-11T02:31:58;2.77;;;1.80;;
9563;SDS011;4820;50.870;4.702;2023-03-11T02:34:27;4.27;;;1.97;;
9563;SDS011;4820;50.870;4.702;2023-03-11T02:36:56;3.30;;;1.97;;
9563;SDS011;4820;50.870;4.702;2023-03-11T02:39:29;4.50;;;2.17;;
9563;SDS011;4820;50.870;4.702;2023-03-11T02:42:06;3.23;;;1.97;;
9563;SDS011;4820;50.870;4.702;2023-03-11T02:44:38;5.87;;;2.00;;
9563;SDS011;4820;50.870;4.702;2023-03-11T02:47:09;6.40;;;2.47;;
9563;SDS011;4820;50.870;4.702;2023-03-11T02:49:35;6.53;;;2.30;;
9563;SDS011;4820;50.870;4.702;2023-03-11T02:52:01;3.97;;;1.90;;
9563;SDS011;4820;50.870;4.702;2023-03-11T02:54:27;4.90;;;2.20;;
9563;SDS011;4820;50.870;4.702;2023-03-11T02:56:53;4.37;;;2.07;;
9563;SDS011;4820;50.870;4.702;2023-03-11T02:59:19;5.20;;;1.93;;
9563;SDS011;4820;50.870;4.702;2023-03-11T03:01:45;3.92;;;2.38;;
9563;SDS011;4820;50.870;4.702;2023-03-11T03:04:10;4.27;;;2.00;;
9563;SDS011;4820;50.870;4.702;2023-03-11T03:06:36;4.57;;;2.23;;
9563;SDS011;4820;50.870;4.702;2023-03-11T03:09:02;6.05;;;1.98;;
9563;SDS011;4820;50.870;4.702;2023-03-11T03:11:28;4.13;;;2.10;;
9563;SDS011;4820;50.870;4.702;2023-03-11T03:13:54;3.97;;;2.10;;
9563;SDS011;4820;50.870;4.702;2023-03-11T03:16:19;7.85;;;2.25;;
9563;SDS011;4820;50.870;4.702;2023-03-11T03:18:45;5.30;;;2.30;;
9563;SDS011;4820;50.870;4.702;2023-03-11T03:21:12;6.37;;;2.07;;
9563;SDS011;4820;50.870;4.702;2023-03-11T03:23:38;5.33;;;2.47;;
9563;SDS011;4820;50.870;4.702;2023-03-11T03:26:04;4.90;;;2.00;;
9563;SDS011;4820;50.870;4.702;2023-03-11T03:28:29;6.47;;;2.40;;
9563;SDS011;4820;50.870;4.702;2023-03-11T03:31:06;5.87;;;2.40;;
9563;SDS011;4820;50.870;4.702;2023-03-11T03:33:34;6.93;;;2.20;;
9563;SDS011;4820;50.870;4.702;2023-03-11T03:36:00;3.47;;;2.10;;
9563;SDS011;4820;50.870;4.702;2023-03-11T03:38:31;4.07;;;2.30;;
9563;SDS011;4820;50.870;4.702;2023-03-11T03:40:56;4.93;;;2.10;;
9563;SDS011;4820;50.870;4.702;2023-03-11T03:43:22;3.87;;;2.00;;
9563;SDS011;4820;50.870;4.702;2023-03-11T03:46:02;4.80;;;2.30;;
9563;SDS011;4820;50.870;4.702;2023-03-11T03:48:29;3.60;;;2.10;;
9563;SDS011;4820;50.870;4.702;2023-03-11T03:50:55;5.47;;;2.30;;
9563;SDS011;4820;50.870;4.702;2023-03-11T03:53:21;4.50;;;2.23;;
9563;SDS011;4820;50.870;4.702;2023-03-11T03:55:46;4.30;;;2.20;;
9563;SDS011;4820;50.870;4.702;2023-03-11T03:58:14;4.07;;;2.20;;
9563;SDS011;4820;50.870;4.702;2023-03-11T04:00:40;4.63;;;2.30;;
9563;SDS011;4820;50.870;4.702;2023-03-11T04:03:06;6.73;;;2.30;;
9563;SDS011;4820;50.870;4.702;2023-03-11T04:05:32;4.33;;;2.20;;
9563;SDS011;4820;50.870;4.702;2023-03-11T04:07:57;4.80;;;2.80;;
9563;SDS011;4820;50.870;4.702;2023-03-11T04:10:24;3.53;;;2.20;;
9563;SDS011;4820;50.870;4.702;2023-03-11T04:12:50;6.63;;;2.57;;
9563;SDS011;4820;50.870;4.702;2023-03-11T04:15:15;4.23;;;2.40;;
9563;SDS011;4820;50.870;4.702;2023-03-11T04:17:41;4.77;;;2.07;;
9563;SDS011;4820;50.870;4.702;2023-03-11T04:20:07;6.13;;;2.37;;
9563;SDS011;4820;50.870;4.702;2023-03-11T04:22:34;3.30;;;2.07;;
9563;SDS011;4820;50.870;4.702;2023-03-11T04:25:00;6.87;;;2.57;;
9563;SDS011;4820;50.870;4.702;2023-03-11T04:27:26;5.63;;;2.73;;
9563;SDS011;4820;50.870;4.702;2023-03-11T04:29:52;5.57;;;2.60;;
9563;SDS011;4820;50.870;4.702;2023-03-11T04:32:18;6.17;;;2.73;;
9563;SDS011;4820;50.870;4.702;2023-03-11T04:34:44;5.90;;;2.80;;
9563;SDS011;4820;50.870;4.702;2023-03-11T04:37:09;7.00;;;2.73;;
9563;SDS011;4820;50.870;4.702;2023-03-11T04:39:35;6.20;;;2.80;;
9563;SDS011;4820;50.870;4.702;2023-03-11T04:42:01;5.93;;;2.63;;
9563;SDS011;4820;50.870;4.702;2023-03-11T04:44:26;5.70;;;2.60;;
9563;SDS011;4820;50.870;4.702;2023-03-11T04:46:52;7.80;;;2.63;;
9563;SDS011;4820;50.870;4.702;2023-03-11T04:49:18;4.73;;;2.40;;
9563;SDS011;4820;50.870;4.702;2023-03-11T04:51:43;4.60;;;2.63;;
9563;SDS011;4820;50.870;4.702;2023-03-11T04:54:09;5.20;;;3.00;;
9563;SDS011;4820;50.870;4.702;2023-03-11T04:56:35;5.70;;;2.53;;
9563;SDS011;4820;50.870;4.702;2023-03-11T04:59:00;4.97;;;2.60;;
9563;SDS011;4820;50.870;4.702;2023-03-11T05:01:26;8.43;;;2.97;;
9563;SDS011;4820;50.870;4.702;2023-03-11T05:03:52;7.73;;;3.03;;
9563;SDS011;4820;50.870;4.702;2023-03-11T05:06:19;4.13;;;2.50;;
9563;SDS011;4820;50.870;4.702;2023-03-11T05:08:44;7.87;;;2.73;;
9563;SDS011;4820;50.870;4.702;2023-03-11T05:11:10;5.30;;;2.50;;
9563;SDS011;4820;50.870;4.702;2023-03-11T05:13:36;4.67;;;2.60;;
9563;SDS011;4820;50.870;4.702;2023-03-11T05:16:01;6.10;;;2.67;;
9563;SDS011;4820;50.870;4.702;2023-03-11T05:18:28;6.40;;;3.10;;
9563;SDS011;4820;50.870;4.702;2023-03-11T05:20:56;4.87;;;2.73;;
9563;SDS011;4820;50.870;4.702;2023-03-11T05:23:22;4.33;;;2.80;;
9563;SDS011;4820;50.870;4.702;2023-03-11T05:25:48;6.30;;;2.80;;
9563;SDS011;4820;50.870;4.702;2023-03-11T05:28:13;6.33;;;2.93;;
9563;SDS011;4820;50.870;4.702;2023-03-11T05:30:39;6.87;;;3.03;;
9563;SDS011;4820;50.870;4.702;2023-03-11T05:33:06;4.77;;;3.00;;
9563;SDS011;4820;50.870;4.702;2023-03-11T05:35:31;5.90;;;3.00;;
9563;SDS011;4820;50.870;4.702;2023-03-11T05:37:57;4.43;;;2.67;;
9563;SDS011;4820;50.870;4.702;2023-03-11T05:40:23;5.90;;;3.10;;
9563;SDS011;4820;50.870;4.702;2023-03-11T05:42:48;7.03;;;2.60;;
9563;SDS011;4820;50.870;4.702;2023-03-11T05:45:14;5.20;;;2.67;;
9563;SDS011;4820;50.870;4.702;2023-03-11T05:47:40;4.43;;;2.67;;
9563;SDS011;4820;50.870;4.702;2023-03-11T05:50:06;8.07;;;2.70;;
9563;SDS011;4820;50.870;4.702;2023-03-11T05:52:33;7.37;;;3.13;;
9563;SDS011;4820;50.870;4.702;2023-03-11T05:54:59;5.97;;;3.50;;
9563;SDS011;4820;50.870;4.702;2023-03-11T05:57:25;5.13;;;3.30;;
9563;SDS011;4820;50.870;4.702;2023-03-11T05:59:50;3.97;;;2.90;;
9563;SDS011;4820;50.870;4.702;2023-03-11T06:02:16;6.67;;;3.70;;
9563;SDS011;4820;50.870;4.702;2023-03-11T06:04:42;5.87;;;3.40;;
9563;SDS011;4820;50.870;4.702;2023-03-11T06:07:07;6.47;;;3.40;;
9563;SDS011;4820;50.870;4.702;2023-03-11T06:09:33;6.13;;;3.53;;
9563;SDS011;4820;50.870;4.702;2023-03-11T06:12:03;5.73;;;2.97;;
9563;SDS011;4820;50.870;4.702;2023-03-11T06:14:29;6.33;;;3.30;;
9563;SDS011;4820;50.870;4.702;2023-03-11T06:16:57;6.97;;;2.90;;
9563;SDS011;4820;50.870;4.702;2023-03-11T06:19:26;6.50;;;3.20;;
9563;SDS011;4820;50.870;4.702;2023-03-11T06:21:52;5.97;;;2.97;;
9563;SDS011;4820;50.870;4.702;2023-03-11T06:24:18;5.37;;;3.20;;
9563;SDS011;4820;50.870;4.702;2023-03-11T06:26:45;5.60;;;3.20;;
9563;SDS011;4820;50.870;4.702;2023-03-11T06:29:14;5.90;;;3.10;;
9563;SDS011;4820;50.870;4.702;2023-03-11T06:31:40;6.47;;;3.23;;
9563;SDS011;4820;50.870;4.702;2023-03-11T06:34:06;7.17;;;4.60;;
9563;SDS011;4820;50.870;4.702;2023-03-11T06:36:32;7.87;;;4.00;;
9563;SDS011;4820;50.870;4.702;2023-03-11T06:38:58;8.10;;;4.97;;
9563;SDS011;4820;50.870;4.702;2023-03-11T06:41:24;4.63;;;3.70;;
9563;SDS011;4820;50.870;4.702;2023-03-11T06:43:49;4.90;;;3.67;;
9563;SDS011;4820;50.870;4.702;2023-03-11T06:46:19;8.10;;;4.00;;
9563;SDS011;4820;50.870;4.702;2023-03-11T06:48:46;6.33;;;3.33;;
9563;SDS011;4820;50.870;4.702;2023-03-11T06:51:15;5.53;;;3.23;;
9563;SDS011;4820;50.870;4.702;2023-03-11T06:53:43;5.33;;;3.17;;
9563;SDS011;4820;50.870;4.702;2023-03-11T06:56:12;4.30;;;2.90;;
9563;SDS011;4820;50.870;4.702;2023-03-11T06:58:39;6.33;;;3.17;;
9563;SDS011;4820;50.870;4.702;2023-03-11T07:03:32;7.53;;;3.40;;
9563;SDS011;4820;50.870;4.702;2023-03-11T07:06:01;5.67;;;3.20;;
9563;SDS011;4820;50.870;4.702;2023-03-11T07:08:27;7.23;;;3.40;;
9563;SDS011;4820;50.870;4.702;2023-03-11T07:11:04;5.27;;;3.63;;
9563;SDS011;4820;50.870;4.702;2023-03-11T07:13:30;7.07;;;3.50;;
9563;SDS011;4820;50.870;4.702;2023-03-11T07:16:03;6.17;;;3.30;;
9563;SDS011;4820;50.870;4.702;2023-03-11T07:18:32;7.57;;;3.70;;
9563;SDS011;4820;50.870;4.702;2023-03-11T07:21:00;7.83;;;3.80;;
9563;SDS011;4820;50.870;4.702;2023-03-11T07:23:26;5.73;;;3.70;;
9563;SDS011;4820;50.870;4.702;2023-03-11T07:25:52;5.70;;;3.40;;
9563;SDS011;4820;50.870;4.702;2023-03-11T07:28:21;6.60;;;3.43;;
9563;SDS011;4820;50.870;4.702;2023-03-11T07:30:48;6.87;;;3.93;;
9563;SDS011;4820;50.870;4.702;2023-03-11T07:33:14;6.00;;;3.60;;
9563;SDS011;4820;50.870;4.702;2023-03-11T07:35:40;7.80;;;4.33;;
9563;SDS011;4820;50.870;4.702;2023-03-11T07:38:06;6.27;;;3.63;;
9563;SDS011;4820;50.870;4.702;2023-03-11T07:40:32;5.20;;;3.80;;
9563;SDS011;4820;50.870;4.702;2023-03-11T07:42:58;5.37;;;3.37;;
9563;SDS011;4820;50.870;4.702;2023-03-11T07:45:25;5.37;;;3.77;;
9563;SDS011;4820;50.870;4.702;2023-03-11T07:47:50;5.10;;;3.73;;
9563;SDS011;4820;50.870;4.702;2023-03-11T07:50:16;6.37;;;4.00;;
9563;SDS011;4820;50.870;4.702;2023-03-11T07:52:46;5.80;;;3.63;;
9563;SDS011;4820;50.870;4.702;2023-03-11T07:55:12;6.20;;;3.63;;
9563;SDS011;4820;50.870;4.702;2023-03-11T07:57:40;6.38;;;3.50;;
9563;SDS011;4820;50.870;4.702;2023-03-11T08:00:07;5.97;;;3.87;;
9563;SDS011;4820;50.870;4.702;2023-03-11T08:02:33;7.37;;;3.83;;
9563;SDS011;4820;50.870;4.702;2023-03-11T08:04:59;6.77;;;4.33;;
9563;SDS011;4820;50.870;4.702;2023-03-11T08:07:25;7.10;;;3.78;;
9563;SDS011;4820;50.870;4.702;2023-03-11T08:09:50;8.27;;;3.72;;
9563;SDS011;4820;50.870;4.702;2023-03-11T08:12:16;5.30;;;3.37;;
9563;SDS011;4820;50.870;4.702;2023-03-11T08:14:42;5.55;;;3.70;;
9563;SDS011;4820;50.870;4.702;2023-03-11T08:17:08;5.78;;;4.22;;
9563;SDS011;4820;50.870;4.702;2023-03-11T08:19:34;6.57;;;4.90;;
9563;SDS011;4820;50.870;4.702;2023-03-11T08:22:03;8.20;;;4.37;;
9563;SDS011;4820;50.870;4.702;2023-03-11T08:24:29;5.43;;;3.83;;
9563;SDS011;4820;50.870;4.702;2023-03-11T08:26:55;6.55;;;4.28;;
9563;SDS011;4820;50.870;4.702;2023-03-11T08:29:21;6.95;;;3.90;;
9563;SDS011;4820;50.870;4.702;2023-03-11T08:31:48;5.72;;;3.30;;
9563;SDS011;4820;50.870;4.702;2023-03-11T08:34:14;4.97;;;3.25;;
9563;SDS011;4820;50.870;4.702;2023-03-11T08:36:40;7.17;;;3.50;;
9563;SDS011;4820;50.870;4.702;2023-03-11T08:39:06;7.43;;;3.60;;
9563;SDS011;4820;50.870;4.702;2023-03-11T08:41:32;7.45;;;3.50;;
9563;SDS011;4820;50.870;4.702;2023-03-11T08:43:58;4.93;;;3.53;;
9563;SDS011;4820;50.870;4.702;2023-03-11T08:48:57;4.90;;;3.40;;
9563;SDS011;4820;50.870;4.702;2023-03-11T08:51:24;6.00;;;3.25;;
9563;SDS011;4820;50.870;4.702;2023-03-11T08:53:50;6.45;;;3.63;;
9563;SDS011;4820;50.870;4.702;2023-03-11T08:56:17;6.30;;;3.65;;
9563;SDS011;4820;50.870;4.702;2023-03-11T08:58:43;7.32;;;3.42;;
9563;SDS011;4820;50.870;4.702;2023-03-11T09:01:09;6.22;;;3.70;;
9563;SDS011;4820;50.870;4.702;2023-03-11T09:03:36;5.60;;;3.08;;
9563;SDS011;4820;50.870;4.702;2023-03-11T09:06:05;7.00;;;3.22;;
9563;SDS011;4820;50.870;4.702;2023-03-11T09:08:35;5.70;;;3.40;;
9563;SDS011;4820;50.870;4.702;2023-03-11T09:11:00;5.22;;;3.28;;
9563;SDS011;4820;50.870;4.702;2023-03-11T09:13:26;5.53;;;2.95;;
9563;SDS011;4820;50.870;4.702;2023-03-11T09:15:53;4.95;;;2.83;;
9563;SDS011;4820;50.870;4.702;2023-03-11T09:18:19;4.90;;;2.50;;
9563;SDS011;4820;50.870;4.702;2023-03-11T09:20:46;3.92;;;2.30;;
9563;SDS011;4820;50.870;4.702;2023-03-11T09:23:13;4.15;;;2.10;;
9563;SDS011;4820;50.870;4.702;2023-03-11T09:25:40;7.20;;;1.80;;
9563;SDS011;4820;50.870;4.702;2023-03-11T09:28:06;3.63;;;1.73;;
9563;SDS011;4820;50.870;4.702;2023-03-11T09:30:33;4.30;;;1.60;;
9563;SDS011;4820;50.870;4.702;2023-03-11T09:32:59;3.83;;;1.52;;
9563;SDS011;4820;50.870;4.702;2023-03-11T09:35:25;2.25;;;1.15;;
9563;SDS011;4820;50.870;4.702;2023-03-11T09:37:51;2.50;;;1.10;;
9563;SDS011;4820;50.870;4.702;2023-03-11T09:40:19;4.85;;;1.40;;
9563;SDS011;4820;50.870;4.702;2023-03-11T09:42:59;2.35;;;1.00;;
9563;SDS011;4820;50.870;4.702;2023-03-11T09:45:35;6.40;;;1.40;;
9563;SDS011;4820;50.870;4.702;2023-03-11T10:01:14;3.72;;;1.20;;
9563;SDS011;4820;50.870;4.702;2023-03-11T10:03:46;2.72;;;1.45;;
9563;SDS011;4820;50.870;4.702;2023-03-11T10:06:19;2.63;;;1.45;;
9563;SDS011;4820;50.870;4.702;2023-03-11T10:16:55;2.28;;;1.20;;
9563;SDS011;4820;50.870;4.702;2023-03-11T10:19:48;5.47;;;1.50;;
9563;SDS011;4820;50.870;4.702;2023-03-11T10:22:44;3.00;;;1.20;;
9563;SDS011;4820;50.870;4.702;2023-03-11T10:25:16;4.03;;;1.10;;
9563;SDS011;4820;50.870;4.702;2023-03-11T10:27:51;4.18;;;1.40;;
9563;SDS011;4820;50.870;4.702;2023-03-11T10:30:26;2.60;;;1.38;;
9563;SDS011;4820;50.870;4.702;2023-03-11T10:35:44;4.15;;;1.40;;
9563;SDS011;4820;50.870;4.702;2023-03-11T10:38:24;3.03;;;1.40;;
9563;SDS011;4820;50.870;4.702;2023-03-11T10:40:55;3.15;;;1.50;;
9563;SDS011;4820;50.870;4.702;2023-03-11T10:43:37;1.58;;;1.30;;
9563;SDS011;4820;50.870;4.702;2023-03-11T10:46:06;4.03;;;1.48;;
9563;SDS011;4820;50.870;4.702;2023-03-11T10:48:47;2.65;;;1.20;;
9563;SDS011;4820;50.870;4.702;2023-03-11T10:53:57;5.65;;;1.60;;
9563;SDS011;4820;50.870;4.702;2023-03-11T10:58:50;5.95;;;1.50;;
9563;SDS011;4820;50.870;4.702;2023-03-11T11:01:16;3.78;;;1.40;;
9563;SDS011;4820;50.870;4.702;2023-03-11T11:03:43;3.15;;;1.17;;
9563;SDS011;4820;50.870;4.702;2023-03-11T11:06:25;3.33;;;1.38;;
9563;SDS011;4820;50.870;4.702;2023-03-11T11:09:16;3.50;;;1.30;;
9563;SDS011;4820;50.870;4.702;2023-03-11T11:12:31;2.30;;;1.20;;
9563;SDS011;4820;50.870;4.702;2023-03-11T11:17:41;2.70;;;1.15;;
9563;SDS011;4820;50.870;4.702;2023-03-11T11:20:01;5.50;;;1.65;;
9563;SDS011;4820;50.870;4.702;2023-03-11T11:22:37;3.60;;;1.10;;
9563;SDS011;4820;50.870;4.702;2023-03-11T11:25:28;3.83;;;1.23;;
9563;SDS011;4820;50.870;4.702;2023-03-11T11:28:01;3.22;;;1.10;;
9563;SDS011;4820;50.870;4.702;2023-03-11T11:30:53;4.68;;;1.13;;
9563;SDS011;4820;50.870;4.702;2023-03-11T11:35:56;5.85;;;1.25;;
9563;SDS011;4820;50.870;4.702;2023-03-11T11:38:26;2.85;;;1.13;;
9563;SDS011;4820;50.870;4.702;2023-03-11T11:40:54;4.65;;;1.60;;
9563;SDS011;4820;50.870;4.702;2023-03-11T11:43:24;7.13;;;1.48;;
9563;SDS011;4820;50.870;4.702;2023-03-11T11:56:48;2.80;;;1.25;;
9563;SDS011;4820;50.870;4.702;2023-03-11T11:59:18;2.20;;;1.30;;
9563;SDS011;4820;50.870;4.702;2023-03-11T12:04:22;2.55;;;1.20;;
9563;SDS011;4820;50.870;4.702;2023-03-11T12:07:35;4.18;;;1.35;;
9563;SDS011;4820;50.870;4.702;2023-03-11T12:10:17;3.25;;;1.50;;
9563;SDS011;4820;50.870;4.702;2023-03-11T12:15:41;4.38;;;1.25;;
9563;SDS011;4820;50.870;4.702;2023-03-11T12:18:48;3.25;;;1.42;;
9563;SDS011;4820;50.870;4.702;2023-03-11T12:21:33;2.90;;;1.20;;
9563;SDS011;4820;50.870;4.702;2023-03-11T12:24:11;4.93;;;1.50;;
9563;SDS011;4820;50.870;4.702;2023-03-11T12:26:56;4.65;;;1.55;;
9563;SDS011;4820;50.870;4.702;2023-03-11T12:29:34;3.55;;;1.45;;
9563;SDS011;4820;50.870;4.702;2023-03-11T12:32:24;3.95;;;1.50;;
9563;SDS011;4820;50.870;4.702;2023-03-11T12:34:53;3.40;;;1.77;;
9563;SDS011;4820;50.870;4.702;2023-03-11T12:37:20;5.18;;;1.55;;
9563;SDS011;4820;50.870;4.702;2023-03-11T12:39:47;3.92;;;1.52;;
9563;SDS011;4820;50.870;4.702;2023-03-11T12:44:39;3.38;;;1.45;;
9563;SDS011;4820;50.870;4.702;2023-03-11T12:52:15;3.60;;;1.65;;
9563;SDS011;4820;50.870;4.702;2023-03-11T12:55:29;5.93;;;1.52;;
9563;SDS011;4820;50.870;4.702;2023-03-11T12:57:52;5.63;;;1.40;;
9563;SDS011;4820;50.870;4.702;2023-03-11T13:03:28;4.97;;;1.38;;
9563;SDS011;4820;50.870;4.702;2023-03-11T13:10:41;3.35;;;1.20;;
9563;SDS011;4820;50.870;4.702;2023-03-11T13:18:40;5.38;;;1.80;;
9563;SDS011;4820;50.870;4.702;2023-03-11T13:23:52;3.05;;;1.52;;
9563;SDS011;4820;50.870;4.702;2023-03-11T13:26:48;3.28;;;1.30;;
9563;SDS011;4820;50.870;4.702;2023-03-11T13:40:57;1.52;;;0.93;;
9563;SDS011;4820;50.870;4.702;2023-03-11T13:43:26;3.67;;;1.02;;
9563;SDS011;4820;50.870;4.702;2023-03-11T13:48:18;3.30;;;1.50;;
9563;SDS011;4820;50.870;4.702;2023-03-11T13:50:52;4.68;;;1.50;;
9563;SDS011;4820;50.870;4.702;2023-03-11T13:53:32;2.30;;;1.15;;
9563;SDS011;4820;50.870;4.702;2023-03-11T13:56:03;3.50;;;1.45;;
9563;SDS011;4820;50.870;4.702;2023-03-11T13:58:29;5.15;;;1.30;;
9563;SDS011;4820;50.870;4.702;2023-03-11T14:00:59;3.05;;;1.30;;
9563;SDS011;4820;50.870;4.702;2023-03-11T14:03:28;3.83;;;1.35;;
9563;SDS011;4820;50.870;4.702;2023-03-11T14:05:59;2.10;;;1.15;;
9563;SDS011;4820;50.870;4.702;2023-03-11T14:08:31;3.97;;;1.30;;
9563;SDS011;4820;50.870;4.702;2023-03-11T14:11:00;3.65;;;1.40;;
9563;SDS011;4820;50.870;4.702;2023-03-11T14:13:27;4.28;;;1.40;;
9563;SDS011;4820;50.870;4.702;2023-03-11T14:18:38;3.53;;;1.48;;
9563;SDS011;4820;50.870;4.702;2023-03-11T14:21:17;2.65;;;1.30;;
9563;SDS011;4820;50.870;4.702;2023-03-11T14:23:45;3.72;;;1.30;;
9563;SDS011;4820;50.870;4.702;2023-03-11T14:28:54;2.85;;;1.30;;
9563;SDS011;4820;50.870;4.702;2023-03-11T14:34:01;2.85;;;1.33;;
9563;SDS011;4820;50.870;4.702;2023-03-11T14:36:40;5.93;;;1.48;;
9563;SDS011;4820;50.870;4.702;2023-03-11T14:39:28;2.78;;;1.20;;
9563;SDS011;4820;50.870;4.702;2023-03-11T14:41:55;5.00;;;1.30;;
9563;SDS011;4820;50.870;4.702;2023-03-11T14:44:43;3.30;;;1.50;;
9563;SDS011;4820;50.870;4.702;2023-03-11T14:47:19;4.85;;;1.65;;
9563;SDS011;4820;50.870;4.702;2023-03-11T14:49:46;3.33;;;1.38;;
9563;SDS011;4820;50.870;4.702;2023-03-11T14:52:18;5.57;;;2.70;;
9563;SDS011;4820;50.870;4.702;2023-03-11T14:54:56;5.45;;;1.70;;
9563;SDS011;4820;50.870;4.702;2023-03-11T14:57:44;3.65;;;1.50;;
9563;SDS011;4820;50.870;4.702;2023-03-11T15:00:16;5.50;;;1.60;;
9563;SDS011;4820;50.870;4.702;2023-03-11T15:08:18;5.00;;;1.73;;
9563;SDS011;4820;50.870;4.702;2023-03-11T15:13:33;4.93;;;1.42;;
9563;SDS011;4820;50.870;4.702;2023-03-11T15:16:00;3.65;;;1.60;;
9563;SDS011;4820;50.870;4.702;2023-03-11T15:18:28;1.90;;;1.27;;
9563;SDS011;4820;50.870;4.702;2023-03-11T15:21:05;3.95;;;1.55;;
9563;SDS011;4820;50.870;4.702;2023-03-11T15:23:48;3.75;;;1.35;;
9563;SDS011;4820;50.870;4.702;2023-03-11T15:26:18;5.40;;;1.65;;
9563;SDS011;4820;50.870;4.702;2023-03-11T15:29:33;5.30;;;1.45;;
9563;SDS011;4820;50.870;4.702;2023-03-11T15:31:40;2.88;;;1.48;;
9563;SDS011;4820;50.870;4.702;2023-03-11T15:34:10;3.30;;;1.40;;
9563;SDS011;4820;50.870;4.702;2023-03-11T15:39:44;4.13;;;1.70;;
9563;SDS011;4820;50.870;4.702;2023-03-11T15:42:12;2.97;;;1.50;;
9563;SDS011;4820;50.870;4.702;2023-03-11T15:44:42;17.42;;;11.63;;
9563;SDS011;4820;50.870;4.702;2023-03-11T15:47:20;6.75;;;1.73;;
9563;SDS011;4820;50.870;4.702;2023-03-11T15:49:46;2.92;;;1.50;;
9563;SDS011;4820;50.870;4.702;2023-03-11T15:52:13;3.10;;;1.35;;
9563;SDS011;4820;50.870;4.702;2023-03-11T15:54:39;3.95;;;1.40;;
9563;SDS011;4820;50.870;4.702;2023-03-11T15:57:07;4.35;;;1.70;;
9563;SDS011;4820;50.870;4.702;2023-03-11T15:59:45;4.93;;;1.92;;
9563;SDS011;4820;50.870;4.702;2023-03-11T16:02:22;4.10;;;1.60;;
9563;SDS011;4820;50.870;4.702;2023-03-11T16:04:50;2.58;;;1.50;;
9563;SDS011;4820;50.870;4.702;2023-03-11T16:07:19;2.40;;;1.40;;
9563;SDS011;4820;50.870;4.702;2023-03-11T16:09:46;3.65;;;1.25;;
9563;SDS011;4820;50.870;4.702;2023-03-11T16:12:22;5.05;;;1.58;;
9563;SDS011;4820;50.870;4.702;2023-03-11T16:14:48;4.72;;;1.50;;
9563;SDS011;4820;50.870;4.702;2023-03-11T16:17:14;4.65;;;1.90;;
9563;SDS011;4820;50.870;4.702;2023-03-11T16:19:41;3.70;;;1.40;;
9563;SDS011;4820;50.870;4.702;2023-03-11T16:22:17;6.68;;;2.22;;
9563;SDS011;4820;50.870;4.702;2023-03-11T16:24:56;4.70;;;1.90;;
9563;SDS011;4820;50.870;4.702;2023-03-11T16:27:23;2.83;;;1.50;;
9563;SDS011;4820;50.870;4.702;2023-03-11T16:29:50;3.90;;;1.63;;
9563;SDS011;4820;50.870;4.702;2023-03-11T16:32:15;3.30;;;1.58;;
9563;SDS011;4820;50.870;4.702;2023-03-11T16:34:41;4.57;;;1.80;;
9563;SDS011;4820;50.870;4.702;2023-03-11T16:37:09;4.97;;;2.03;;
9563;SDS011;4820;50.870;4.702;2023-03-11T16:39:40;3.78;;;1.70;;
9563;SDS011;4820;50.870;4.702;2023-03-11T16:42:06;3.70;;;1.60;;
9563;SDS011;4820;50.870;4.702;2023-03-11T16:44:32;3.80;;;1.65;;
9563;SDS011;4820;50.870;4.702;2023-03-11T16:46:59;7.25;;;4.80;;
9563;SDS011;4820;50.870;4.702;2023-03-11T16:49:25;3.00;;;1.67;;
9563;SDS011;4820;50.870;4.702;2023-03-11T16:51:50;2.60;;;1.42;;
9563;SDS011;4820;50.870;4.702;2023-03-11T16:54:16;2.38;;;1.27;;
9563;SDS011;4820;50.870;4.702;2023-03-11T16:56:41;2.77;;;1.57;;
9563;SDS011;4820;50.870;4.702;2023-03-11T16:59:07;3.53;;;2.05;;
9563;SDS011;4820;50.870;4.702;2023-03-11T17:01:33;4.53;;;1.88;;
9563;SDS011;4820;50.870;4.702;2023-03-11T17:04:03;3.03;;;1.58;;
9563;SDS011;4820;50.870;4.702;2023-03-11T17:06:31;3.83;;;1.52;;
9563;SDS011;4820;50.870;4.702;2023-03-11T17:08:57;6.13;;;1.50;;
9563;SDS011;4820;50.870;4.702;2023-03-11T17:11:23;3.40;;;1.52;;
9563;SDS011;4820;50.870;4.702;2023-03-11T17:13:52;3.75;;;1.67;;
9563;SDS011;4820;50.870;4.702;2023-03-11T17:16:18;4.57;;;1.50;;
9563;SDS011;4820;50.870;4.702;2023-03-11T17:18:44;6.15;;;1.98;;
9563;SDS011;4820;50.870;4.702;2023-03-11T17:21:12;4.15;;;1.70;;
9563;SDS011;4820;50.870;4.702;2023-03-11T17:23:39;5.38;;;1.80;;